createdAt,value
2023-05-18T00:00:02.955Z,2.75
2023-05-18T00:02:31.553Z,3.00
2023-05-18T00:05:02.016Z,2.80
2023-05-18T00:07:33.941Z,2.83
2023-05-18T00:10:01.593Z,3.37
2023-05-18T00:12:28.439Z,2.95
2023-05-18T00:14:55.069Z,2.70
2023-05-18T00:17:21.819Z,3.20
2023-05-18T00:19:50.327Z,2.78
2023-05-18T00:22:20.020Z,2.63
2023-05-18T00:24:47.968Z,2.53
2023-05-18T00:27:15.171Z,2.83
2023-05-18T00:29:41.952Z,3.15
2023-05-18T00:32:09.197Z,3.00
2023-05-18T00:34:37.113Z,3.38
2023-05-18T00:37:03.865Z,3.08
2023-05-18T00:39:30.536Z,2.72
2023-05-18T00:41:57.120Z,3.33
2023-05-18T00:44:24.444Z,3.50
2023-05-18T00:46:51.007Z,3.08
2023-05-18T00:49:17.868Z,3.05
2023-05-18T00:51:45.820Z,4.22
2023-05-18T00:54:12.549Z,2.83
2023-05-18T00:56:41.882Z,3.45
2023-05-18T00:59:12.294Z,3.47
2023-05-18T01:01:43.766Z,3.85
2023-05-18T01:04:14.126Z,3.60
2023-05-18T01:06:41.972Z,3.35
2023-05-18T01:09:13.616Z,2.95
2023-05-18T01:11:46.035Z,3.40
2023-05-18T01:14:33.411Z,3.83
2023-05-18T01:17:06.988Z,3.00
2023-05-18T01:19:51.862Z,3.47
2023-05-18T01:22:31.363Z,3.35
2023-05-18T01:25:04.868Z,3.00
2023-05-18T01:27:37.490Z,3.22
2023-05-18T01:32:42.439Z,3.15
2023-05-18T01:35:09.501Z,2.95
2023-05-18T01:37:36.035Z,3.35
2023-05-18T01:40:05.469Z,3.70
2023-05-18T01:42:37.823Z,3.17
2023-05-18T01:45:13.574Z,3.75
2023-05-18T01:47:45.114Z,3.05
2023-05-18T01:50:18.473Z,3.20
2023-05-18T01:52:53.788Z,3.53
2023-05-18T01:55:21.671Z,3.10
2023-05-18T01:57:51.520Z,3.58
2023-05-18T02:00:20.191Z,3.95
2023-05-18T02:02:47.521Z,3.25
2023-05-18T02:05:16.714Z,2.85
2023-05-18T02:07:47.413Z,3.10
2023-05-18T02:10:14.708Z,3.95
2023-05-18T02:12:41.660Z,3.55
2023-05-18T02:15:09.591Z,3.35
2023-05-18T02:17:39.678Z,3.13
2023-05-18T02:20:07.753Z,3.75
2023-05-18T02:22:35.109Z,3.70
2023-05-18T02:25:02.610Z,3.53
2023-05-18T02:27:30.107Z,3.00
2023-05-18T02:29:56.829Z,4.20
2023-05-18T02:32:23.802Z,3.80
2023-05-18T02:34:53.791Z,4.22
2023-05-18T02:37:23.089Z,3.30
2023-05-18T02:39:50.162Z,4.38
2023-05-18T02:42:16.747Z,4.28
2023-05-18T02:44:43.769Z,3.72
2023-05-18T02:47:13.801Z,3.95
2023-05-18T02:49:40.541Z,4.55
2023-05-18T02:52:07.310Z,4.20
2023-05-18T02:54:34.001Z,4.68
2023-05-18T02:57:02.209Z,4.55
2023-05-18T02:59:44.566Z,4.45
2023-05-18T03:02:14.333Z,4.10
2023-05-18T03:04:41.753Z,4.38
2023-05-18T03:07:10.521Z,4.22
2023-05-18T03:09:37.982Z,4.97
2023-05-18T03:12:05.759Z,4.53
2023-05-18T03:14:32.616Z,4.20
2023-05-18T03:16:59.307Z,4.90
2023-05-18T03:19:27.411Z,4.20
2023-05-18T03:21:54.263Z,4.57
2023-05-18T03:24:21.408Z,4.75
2023-05-18T03:26:49.602Z,4.88
2023-05-18T03:29:16.436Z,4.00
2023-05-18T03:31:43.524Z,5.00
2023-05-18T03:34:11.448Z,4.68
2023-05-18T03:36:38.443Z,4.30
2023-05-18T03:39:08.534Z,4.20
2023-05-18T03:41:35.513Z,3.97
2023-05-18T03:44:02.589Z,4.53
2023-05-18T03:46:31.023Z,4.65
2023-05-18T03:48:57.947Z,4.72
2023-05-18T03:51:31.843Z,4.30
2023-05-18T03:53:59.665Z,4.88
2023-05-18T03:56:26.393Z,4.20
2023-05-18T03:58:53.037Z,3.88
2023-05-18T04:01:19.674Z,4.60
2023-05-18T04:03:46.382Z,5.43
2023-05-18T04:06:13.982Z,4.45
2023-05-18T04:08:42.105Z,4.10
2023-05-18T04:11:09.294Z,4.13
2023-05-18T04:13:38.125Z,4.28
2023-05-18T04:16:05.149Z,4.50
2023-05-18T04:18:32.115Z,5.38
2023-05-18T04:21:00.374Z,4.53
2023-05-18T04:23:28.451Z,4.28
2023-05-18T04:25:56.255Z,4.57
2023-05-18T04:28:23.304Z,3.97
2023-05-18T04:30:49.914Z,4.72
2023-05-18T04:33:16.639Z,4.30
2023-05-18T04:35:44.656Z,4.30
2023-05-18T04:38:11.508Z,4.53
2023-05-18T04:40:42.472Z,4.55
2023-05-18T04:43:10.504Z,4.40
2023-05-18T04:45:38.258Z,4.00
2023-05-18T04:48:05.596Z,4.25
2023-05-18T04:50:32.307Z,4.03
2023-05-18T04:53:02.011Z,4.40
2023-05-18T04:55:31.014Z,4.38
2023-05-18T04:58:03.061Z,4.03
2023-05-18T05:00:30.375Z,4.20
2023-05-18T05:02:58.575Z,3.85
2023-05-18T05:05:25.977Z,4.22
2023-05-18T05:07:53.838Z,4.18
2023-05-18T05:10:20.895Z,4.85
2023-05-18T05:12:49.580Z,4.20
2023-05-18T05:15:17.198Z,4.30
2023-05-18T05:17:43.976Z,4.18
2023-05-18T05:20:10.991Z,3.47
2023-05-18T05:22:37.888Z,3.67
2023-05-18T05:25:07.367Z,4.22
2023-05-18T05:27:34.346Z,4.05
2023-05-18T05:30:02.272Z,4.30
2023-05-18T05:32:30.333Z,4.15
2023-05-18T05:34:57.043Z,3.90
2023-05-18T05:37:26.020Z,3.63
2023-05-18T05:39:53.359Z,4.22
2023-05-18T05:42:19.977Z,4.50
2023-05-18T05:44:47.232Z,4.28
2023-05-18T05:47:13.935Z,3.90
2023-05-18T05:49:42.111Z,3.47
2023-05-18T05:52:08.805Z,3.90
2023-05-18T05:54:35.817Z,3.95
2023-05-18T05:57:03.838Z,4.30
2023-05-18T05:59:30.629Z,4.13
2023-05-18T06:01:58.867Z,3.67
2023-05-18T06:04:26.784Z,4.25
2023-05-18T06:06:54.095Z,3.53
2023-05-18T06:09:21.286Z,3.67
2023-05-18T06:11:48.907Z,3.40
2023-05-18T06:14:15.606Z,3.63
2023-05-18T06:16:42.372Z,3.92
2023-05-18T06:19:09.093Z,3.90
2023-05-18T06:21:35.887Z,4.75
2023-05-18T06:24:05.073Z,3.55
2023-05-18T06:26:40.764Z,3.63
2023-05-18T06:29:24.864Z,3.38
2023-05-18T06:32:17.718Z,3.47
2023-05-18T06:34:52.673Z,3.90
2023-05-18T06:37:20.626Z,2.88
2023-05-18T06:39:47.338Z,3.50
2023-05-18T06:42:13.920Z,3.42
2023-05-18T06:44:51.337Z,3.40
2023-05-18T06:47:19.766Z,2.78
2023-05-18T06:49:47.268Z,2.92
2023-05-18T06:52:14.598Z,4.15
2023-05-18T06:54:43.228Z,3.42
2023-05-18T06:57:10.190Z,3.50
2023-05-18T06:59:36.847Z,2.92
2023-05-18T07:02:04.781Z,3.40
2023-05-18T07:04:31.914Z,3.28
2023-05-18T07:06:58.569Z,3.72
2023-05-18T07:09:25.678Z,3.55
2023-05-18T07:11:52.288Z,3.83
2023-05-18T07:14:18.893Z,3.55
2023-05-18T07:16:47.288Z,3.35
2023-05-18T07:19:15.147Z,3.47
2023-05-18T07:21:42.209Z,3.45
2023-05-18T07:24:08.865Z,3.35
2023-05-18T07:26:35.442Z,3.90
2023-05-18T07:29:02.044Z,2.83
2023-05-18T07:31:28.747Z,3.33
2023-05-18T07:33:55.435Z,2.75
2023-05-18T07:36:22.138Z,3.42
2023-05-18T07:38:54.737Z,3.42
2023-05-18T07:41:22.892Z,3.03
2023-05-18T07:43:51.494Z,3.13
2023-05-18T07:46:19.148Z,3.25
2023-05-18T07:48:46.301Z,3.30
2023-05-18T07:51:13.256Z,3.83
2023-05-18T07:53:40.931Z,3.22
2023-05-18T07:56:08.642Z,2.92
2023-05-18T07:58:36.501Z,3.30
2023-05-18T08:01:03.622Z,3.03
2023-05-18T08:03:30.233Z,3.05
2023-05-18T08:05:56.808Z,3.20
2023-05-18T08:08:24.425Z,2.90
2023-05-18T08:10:52.114Z,3.05
2023-05-18T08:13:19.044Z,2.95
2023-05-18T08:15:50.841Z,3.03
2023-05-18T08:18:23.041Z,3.17
2023-05-18T08:20:49.697Z,2.90
2023-05-18T08:23:16.273Z,3.38
2023-05-18T08:25:42.830Z,3.42
2023-05-18T08:28:09.395Z,3.30
2023-05-18T08:30:36.018Z,3.13
2023-05-18T08:33:03.109Z,3.53
2023-05-18T08:35:30.054Z,3.55
2023-05-18T08:37:57.590Z,3.28
2023-05-18T08:40:32.557Z,3.55
2023-05-18T08:43:03.520Z,4.13
2023-05-18T08:45:40.229Z,3.90
2023-05-18T08:48:07.991Z,3.90
2023-05-18T08:50:36.044Z,3.67
2023-05-18T08:53:05.992Z,3.33
2023-05-18T08:55:37.102Z,3.15
2023-05-18T08:58:07.283Z,3.58
2023-05-18T09:00:34.735Z,2.88
2023-05-18T09:03:04.103Z,3.63
2023-05-18T09:05:31.680Z,3.25
2023-05-18T09:07:59.291Z,3.38
2023-05-18T09:10:26.144Z,3.35
2023-05-18T09:12:56.908Z,3.22
2023-05-18T09:15:25.301Z,3.30
2023-05-18T09:17:52.497Z,3.45
2023-05-18T09:20:19.811Z,3.75
2023-05-18T09:22:46.937Z,3.55
2023-05-18T09:25:15.837Z,3.08
2023-05-18T09:27:42.845Z,2.60
2023-05-18T09:30:12.726Z,3.08
2023-05-18T09:32:39.403Z,3.20
2023-05-18T09:35:09.496Z,3.40
2023-05-18T09:37:36.404Z,3.53
2023-05-18T09:40:06.228Z,4.15
2023-05-18T09:42:40.045Z,3.15
2023-05-18T09:45:26.605Z,3.10
2023-05-18T09:47:53.970Z,2.95
2023-05-18T09:50:25.284Z,2.97
2023-05-18T09:52:52.203Z,3.28
2023-05-18T09:55:20.189Z,3.00
2023-05-18T09:57:51.584Z,3.20
2023-05-18T10:00:21.156Z,3.45
2023-05-18T10:02:52.200Z,3.30
2023-05-18T10:05:23.219Z,3.42
2023-05-18T10:07:54.539Z,3.50
2023-05-18T10:10:23.574Z,3.58
2023-05-18T10:12:54.810Z,3.20
2023-05-18T10:15:23.626Z,3.00
2023-05-18T10:17:55.225Z,3.13
2023-05-18T10:20:24.434Z,3.93
2023-05-18T10:22:52.410Z,3.25
2023-05-18T10:25:21.060Z,2.75
2023-05-18T10:27:50.665Z,2.75
2023-05-18T10:30:17.922Z,3.20
2023-05-18T10:32:45.762Z,3.08
2023-05-18T10:35:13.792Z,3.20
2023-05-18T10:37:47.284Z,2.75
2023-05-18T10:40:15.552Z,2.92
2023-05-18T10:42:43.481Z,3.25
2023-05-18T10:45:13.223Z,3.10
2023-05-18T10:47:42.498Z,3.35
2023-05-18T10:50:09.945Z,2.83
2023-05-18T10:52:42.936Z,2.55
2023-05-18T10:55:09.612Z,2.70
2023-05-18T10:57:53.880Z,3.00
2023-05-18T11:00:20.729Z,3.13
2023-05-18T11:02:49.858Z,3.22
2023-05-18T11:05:24.484Z,3.15
2023-05-18T11:07:53.984Z,2.75
2023-05-18T11:10:20.598Z,2.75
2023-05-18T11:12:47.149Z,2.90
2023-05-18T11:15:13.731Z,3.03
2023-05-18T11:17:40.308Z,2.78
2023-05-18T11:20:06.842Z,3.00
2023-05-18T11:22:42.566Z,3.40
2023-05-18T11:25:09.822Z,3.20
2023-05-18T11:27:36.521Z,3.15
2023-05-18T11:30:14.802Z,2.78
2023-05-18T11:32:51.565Z,2.72
2023-05-18T11:35:24.032Z,2.67
2023-05-18T11:37:50.745Z,2.42
2023-05-18T11:40:45.112Z,3.30
2023-05-18T11:43:20.984Z,2.60
2023-05-18T11:45:59.382Z,2.92
2023-05-18T11:48:30.335Z,2.80
2023-05-18T11:50:57.316Z,3.10
2023-05-18T11:53:25.748Z,3.00
2023-05-18T11:55:54.714Z,2.75
2023-05-18T11:58:24.458Z,3.13
2023-05-18T12:00:51.872Z,2.80
2023-05-18T12:03:24.779Z,3.72
2023-05-18T12:05:51.785Z,3.38
2023-05-18T12:08:19.355Z,2.78
2023-05-18T12:10:47.284Z,2.67
2023-05-18T12:13:16.906Z,2.63
2023-05-18T12:15:44.649Z,3.08
2023-05-18T12:18:11.503Z,2.97
2023-05-18T12:20:41.017Z,3.08
2023-05-18T12:23:07.789Z,3.28
2023-05-18T12:25:34.544Z,2.50
2023-05-18T12:28:02.103Z,3.08
2023-05-18T12:30:34.828Z,3.50
2023-05-18T12:33:03.186Z,2.97
2023-05-18T12:35:31.535Z,2.75
2023-05-18T12:38:02.857Z,2.85
2023-05-18T12:40:48.814Z,2.90
2023-05-18T12:43:15.616Z,2.95
2023-05-18T12:45:44.336Z,2.80
2023-05-18T12:48:11.898Z,3.20
2023-05-18T12:50:49.114Z,3.33
2023-05-18T12:53:17.493Z,3.30
2023-05-18T12:55:44.309Z,3.63
2023-05-18T12:58:19.176Z,3.08
2023-05-18T13:00:47.516Z,3.58
2023-05-18T13:03:24.680Z,3.83
2023-05-18T13:06:05.274Z,3.15
2023-05-18T13:08:33.358Z,3.03
2023-05-18T13:11:13.655Z,2.70
2023-05-18T13:14:10.683Z,3.20
2023-05-18T13:16:44.511Z,2.97
2023-05-18T13:19:11.498Z,3.30
2023-05-18T13:21:39.060Z,3.00
2023-05-18T13:24:05.973Z,4.53
2023-05-18T13:26:32.984Z,3.63
2023-05-18T13:29:00.337Z,3.58
2023-05-18T13:31:29.336Z,3.08
2023-05-18T13:33:56.288Z,3.10
2023-05-18T13:36:23.351Z,2.83
2023-05-18T13:38:49.995Z,3.58
2023-05-18T13:41:16.617Z,3.40
2023-05-18T13:43:43.285Z,3.55
2023-05-18T13:46:10.091Z,3.63
2023-05-18T13:48:36.913Z,3.20
2023-05-18T13:51:03.720Z,3.50
2023-05-18T13:53:30.531Z,4.65
2023-05-18T13:55:57.083Z,3.42
2023-05-18T13:58:23.823Z,3.63
2023-05-18T14:00:50.518Z,3.88
2023-05-18T14:03:17.705Z,3.13
2023-05-18T14:05:44.568Z,3.47
2023-05-18T14:08:11.196Z,3.25
2023-05-18T14:10:37.775Z,2.67
2023-05-18T14:13:04.401Z,3.17
2023-05-18T14:15:30.966Z,3.17
2023-05-18T14:17:57.606Z,2.95
2023-05-18T14:20:24.212Z,3.50
2023-05-18T14:22:50.937Z,3.08
2023-05-18T14:25:17.607Z,2.97
2023-05-18T14:27:44.527Z,3.53
2023-05-18T14:30:11.531Z,3.45
2023-05-18T14:32:38.183Z,2.88
2023-05-18T14:35:05.202Z,3.20
2023-05-18T14:37:32.992Z,2.90
2023-05-18T14:39:59.839Z,2.83
2023-05-18T14:42:26.588Z,3.35
2023-05-18T14:44:53.213Z,3.22
2023-05-18T14:47:19.799Z,2.80
2023-05-18T14:49:46.383Z,3.33
2023-05-18T14:52:13.019Z,3.67
2023-05-18T14:54:40.314Z,3.35
2023-05-18T14:57:06.867Z,3.40
2023-05-18T14:59:33.602Z,3.17
2023-05-18T15:02:00.568Z,3.55
2023-05-18T15:04:27.238Z,3.30
2023-05-18T15:06:53.856Z,3.17
2023-05-18T15:09:20.425Z,3.40
2023-05-18T15:11:47.100Z,3.88
2023-05-18T15:14:13.637Z,3.50
2023-05-18T15:16:40.338Z,3.65
2023-05-18T15:19:07.018Z,3.90
2023-05-18T15:21:33.860Z,3.35
2023-05-18T15:24:00.424Z,2.97
2023-05-18T15:26:27.587Z,3.78
2023-05-18T15:28:54.270Z,3.60
2023-05-18T15:31:20.981Z,3.72
2023-05-18T15:33:47.712Z,3.95
2023-05-18T15:36:14.333Z,3.42
2023-05-18T15:38:41.145Z,3.35
2023-05-18T15:41:07.966Z,3.50
2023-05-18T15:43:36.485Z,3.03
2023-05-18T15:46:03.259Z,3.35
2023-05-18T15:48:29.856Z,3.45
2023-05-18T15:50:56.425Z,3.72
2023-05-18T15:53:23.198Z,3.33
2023-05-18T15:55:50.871Z,3.28
2023-05-18T15:58:17.487Z,3.13
2023-05-18T16:00:44.155Z,3.17
2023-05-18T16:03:10.955Z,2.92
2023-05-18T16:05:37.697Z,3.30
2023-05-18T16:08:04.369Z,3.05
2023-05-18T16:10:31.355Z,3.28
2023-05-18T16:13:05.519Z,3.45
2023-05-18T16:15:35.601Z,3.10
2023-05-18T16:18:02.586Z,3.65
2023-05-18T16:20:29.784Z,3.70
2023-05-18T16:22:56.974Z,2.95
2023-05-18T16:25:24.015Z,3.25
2023-05-18T16:27:50.725Z,3.60
2023-05-18T16:30:17.402Z,3.70
2023-05-18T16:32:44.418Z,3.40
2023-05-18T16:35:11.414Z,3.85
2023-05-18T16:37:38.515Z,3.17
2023-05-18T16:40:06.320Z,3.67
2023-05-18T16:42:32.952Z,3.40
2023-05-18T16:44:59.892Z,2.78
2023-05-18T16:47:27.610Z,3.72
2023-05-18T16:49:54.438Z,3.42
2023-05-18T16:52:21.437Z,3.58
2023-05-18T16:54:48.232Z,3.03
2023-05-18T16:57:15.169Z,3.15
2023-05-18T16:59:42.497Z,3.10
2023-05-18T17:02:13.210Z,2.80
2023-05-18T17:04:45.839Z,3.45
2023-05-18T17:09:41.418Z,2.97
2023-05-18T17:12:11.690Z,3.15
2023-05-18T17:14:38.816Z,3.28
2023-05-18T17:17:06.122Z,3.70
2023-05-18T17:19:34.768Z,3.35
2023-05-18T17:22:01.698Z,2.67
2023-05-18T17:24:28.327Z,2.90
2023-05-18T17:26:54.977Z,3.20
2023-05-18T17:29:21.978Z,3.15
2023-05-18T17:31:48.901Z,3.83
2023-05-18T17:34:15.707Z,3.47
2023-05-18T17:36:42.619Z,2.92
2023-05-18T17:39:09.313Z,2.80
2023-05-18T17:41:36.379Z,3.35
2023-05-18T17:44:03.318Z,2.50
2023-05-18T17:46:30.657Z,3.42
2023-05-18T17:48:57.276Z,4.10
2023-05-18T17:51:24.690Z,3.58
2023-05-18T17:53:51.615Z,3.30
2023-05-18T17:56:18.452Z,3.22
2023-05-18T17:58:45.164Z,3.00
2023-05-18T18:01:12.247Z,3.88
2023-05-18T18:03:39.316Z,3.50
2023-05-18T18:06:06.739Z,3.47
2023-05-18T18:08:33.725Z,3.60
2023-05-18T18:11:00.574Z,2.58
2023-05-18T18:13:27.225Z,2.63
2023-05-18T18:15:53.857Z,2.78
2023-05-18T18:18:21.249Z,3.42
2023-05-18T18:20:47.829Z,3.10
2023-05-18T18:23:15.630Z,3.03
2023-05-18T18:25:43.485Z,2.75
2023-05-18T18:28:14.561Z,3.47
2023-05-18T18:30:44.016Z,3.75
2023-05-18T18:33:11.353Z,2.75
2023-05-18T18:35:38.089Z,3.05
2023-05-18T18:38:04.925Z,3.45
2023-05-18T18:40:31.996Z,3.78
2023-05-18T18:42:58.776Z,4.32
2023-05-18T18:45:26.867Z,4.45
2023-05-18T18:47:53.454Z,4.18
2023-05-18T18:50:20.104Z,3.90
2023-05-18T18:52:46.769Z,3.55
2023-05-18T18:55:13.565Z,3.55
2023-05-18T18:57:40.134Z,4.07
2023-05-18T19:00:10.982Z,3.28
2023-05-18T19:02:38.563Z,3.40
2023-05-18T19:05:05.700Z,2.95
2023-05-18T19:07:32.675Z,3.25
2023-05-18T19:09:59.533Z,3.45
2023-05-18T19:12:26.119Z,3.78
2023-05-18T19:14:52.694Z,3.20
2023-05-18T19:17:19.442Z,3.03
2023-05-18T19:19:46.028Z,3.58
2023-05-18T19:22:14.352Z,3.47
2023-05-18T19:24:41.210Z,3.10
2023-05-18T19:27:07.857Z,3.33
2023-05-18T19:29:37.357Z,3.90
2023-05-18T19:32:04.753Z,3.28
2023-05-18T19:34:31.440Z,3.97
2023-05-18T19:36:58.008Z,3.90
2023-05-18T19:39:24.591Z,4.30
2023-05-18T19:41:51.155Z,4.03
2023-05-18T19:44:17.692Z,3.47
2023-05-18T19:46:44.337Z,3.92
2023-05-18T19:49:11.112Z,5.35
2023-05-18T19:51:38.063Z,4.30
2023-05-18T19:54:04.804Z,4.68
2023-05-18T19:56:31.545Z,4.45
2023-05-18T19:58:58.334Z,4.53
2023-05-18T20:01:25.636Z,5.00
2023-05-18T20:03:52.291Z,4.03
2023-05-18T20:06:19.923Z,4.47
2023-05-18T20:08:46.648Z,4.90
2023-05-18T20:11:14.701Z,4.53
2023-05-18T20:13:43.685Z,4.10
2023-05-18T20:16:10.346Z,4.55
2023-05-18T20:18:37.515Z,4.55
2023-05-18T20:21:04.289Z,5.45
2023-05-18T20:23:30.922Z,5.00
2023-05-18T20:25:57.570Z,4.47
2023-05-18T20:28:26.257Z,5.63
2023-05-18T20:30:52.851Z,5.70
2023-05-18T20:33:20.337Z,5.07
2023-05-18T20:35:46.928Z,5.43
2023-05-18T20:38:13.653Z,7.10
2023-05-18T20:40:41.513Z,6.45
2023-05-18T20:43:09.961Z,5.88
2023-05-18T20:45:36.655Z,6.65
2023-05-18T20:48:04.504Z,6.85
2023-05-18T20:50:33.592Z,7.07
2023-05-18T20:53:00.629Z,6.15
2023-05-18T20:55:27.510Z,6.20
2023-05-18T20:57:54.052Z,5.90
2023-05-18T21:00:21.602Z,5.97
2023-05-18T21:02:48.518Z,7.18
2023-05-18T21:05:16.236Z,6.40
2023-05-18T21:07:43.730Z,6.03
2023-05-18T21:10:11.274Z,6.97
2023-05-18T21:12:38.230Z,6.53
2023-05-18T21:15:05.319Z,7.85
2023-05-18T21:17:32.140Z,6.93
2023-05-18T21:19:59.199Z,6.18
2023-05-18T21:22:25.951Z,7.13
2023-05-18T21:24:52.590Z,6.65
2023-05-18T21:27:19.172Z,6.68
2023-05-18T21:29:45.747Z,6.43
2023-05-18T21:32:12.519Z,5.95
2023-05-18T21:34:41.086Z,6.60
2023-05-18T21:37:09.544Z,7.25
2023-05-18T21:39:36.190Z,6.10
2023-05-18T21:42:03.779Z,6.63
2023-05-18T21:44:30.360Z,6.95
2023-05-18T21:46:57.921Z,6.55
2023-05-18T21:49:24.812Z,6.32
2023-05-18T21:51:51.627Z,6.90
2023-05-18T21:54:18.217Z,6.20
2023-05-18T21:56:44.912Z,6.07
2023-05-18T21:59:11.601Z,6.13
2023-05-18T22:01:38.173Z,6.30
2023-05-18T22:04:04.809Z,6.10
2023-05-18T22:06:31.542Z,6.03
2023-05-18T22:08:58.175Z,5.82
2023-05-18T22:11:24.874Z,5.43
2023-05-18T22:13:51.423Z,5.78
2023-05-18T22:16:18.091Z,6.25
2023-05-18T22:18:44.831Z,5.60
2023-05-18T22:21:11.673Z,5.30
2023-05-18T22:23:39.160Z,6.50
2023-05-18T22:26:06.005Z,6.63
2023-05-18T22:28:32.797Z,6.28
2023-05-18T22:30:59.388Z,6.53
2023-05-18T22:33:26.025Z,6.70
2023-05-18T22:35:52.653Z,7.50
2023-05-18T22:38:19.257Z,6.50
2023-05-18T22:40:46.109Z,7.40
2023-05-18T22:43:12.682Z,6.90
2023-05-18T22:45:39.427Z,7.20
2023-05-18T22:48:06.293Z,7.05
2023-05-18T22:50:33.364Z,6.55
2023-05-18T22:53:02.359Z,7.32
2023-05-18T22:55:29.015Z,6.53
2023-05-18T22:57:55.611Z,6.82
2023-05-18T23:00:22.637Z,6.32
2023-05-18T23:02:49.271Z,6.93
2023-05-18T23:05:17.121Z,6.70
2023-05-18T23:07:43.932Z,5.90
2023-05-18T23:10:11.837Z,5.70
2023-05-18T23:12:38.715Z,6.45
2023-05-18T23:15:06.030Z,6.75
2023-05-18T23:17:33.561Z,6.38
2023-05-18T23:20:06.799Z,5.68
2023-05-18T23:22:37.214Z,6.65
2023-05-18T23:25:08.399Z,6.50
2023-05-18T23:27:35.367Z,6.47
2023-05-18T23:30:01.971Z,6.80
2023-05-18T23:32:28.954Z,7.50
2023-05-18T23:34:57.748Z,6.72
2023-05-18T23:37:24.700Z,6.85
2023-05-18T23:39:52.092Z,7.30
2023-05-18T23:42:20.402Z,5.95
2023-05-18T23:44:48.592Z,7.10
2023-05-18T23:47:16.534Z,7.65
2023-05-18T23:49:44.766Z,6.55
2023-05-18T23:52:13.542Z,7.20
2023-05-18T23:54:40.819Z,7.78
2023-05-18T23:57:08.171Z,7.35
2023-05-18T23:59:34.917Z,8.00
